Time;durP1;ratioP1;P1;durP2;ratioP2;P2;SDS_P1;SDS_P2;PMS_P1;PMS_P2;Temp;Humidity;BMP_temperature;BMP_pressure;BME280_temperature;BME280_humidity;BME280_pressure;Samples;Min_cycle;Max_cycle;Signal;HPM_P1;HPM_P2
2022/07/06 18:00:27;;;;;;;244.2;24.9;;;;;;;23.23;63.46484;941.7006;;;;
2022/07/06 18:03:03;;;;;;;2.2;2;;;;;;;23.19;65.52832;941.7413;;;;
2022/07/06 18:05:36;;;;;;;4.5;2.4;;;;;;;23.15;64.14551;941.7267;;;;
2022/07/06 18:08:09;;;;;;;2.7;2.4;;;;;;;23.09;65.37207;941.7292;;;;
2022/07/06 18:10:26;;;;;;;2.8;2.1;;;;;;;23.03;65.68066;941.7949;;;;
2022/07/06 18:12:55;;;;;;;2.6;2.3;;;;;;;22.97;64.39063;941.8176;;;;
2022/07/06 18:15:21;;;;;;;3.2;2.1;;;;;;;22.88;63.00488;941.7878;;;;
2022/07/06 18:17:51;;;;;;;3.3;2.4;;;;;;;22.83;66.42578;941.8586;;;;
2022/07/06 18:20:17;;;;;;;3.2;2.3;;;;;;;22.74;66.95215;941.847;;;;
2022/07/06 18:22:45;;;;;;;2.8;2.1;;;;;;;22.67;67.58594;941.7731;;;;
2022/07/06 18:25:17;;;;;;;2.7;2.1;;;;;;;22.65;66.82129;941.8817;;;;
2022/07/06 18:27:47;;;;;;;2.8;2.2;;;;;;;22.66;67.375;941.8156;;;;
2022/07/06 18:30:23;;;;;;;2.3;2.1;;;;;;;22.58;64.24023;941.8477;;;;
2022/07/06 18:32:49;;;;;;;3.7;2;;;;;;;22.57;62.72559;941.8399;;;;
2022/07/06 18:35:18;;;;;;;4.9;2.2;;;;;;;22.45;62.91992;941.8275;;;;
2022/07/06 18:37:48;;;;;;;2.4;2.2;;;;;;;22.41;62.59668;941.795;;;;
2022/07/06 18:40:17;;;;;;;2.5;2;;;;;;;22.31;63.22754;941.8719;;;;
2022/07/06 18:42:45;;;;;;;2.5;2.3;;;;;;;22.26;65.53223;941.815;;;;
2022/07/06 18:45:11;;;;;;;5.6;2.5;;;;;;;22.23;66.1377;941.7972;;;;
2022/07/06 18:47:39;;;;;;;2.5;2.2;;;;;;;22.13;65.08984;941.7888;;;;
2022/07/06 18:50:03;;;;;;;3.3;3;;;;;;;22;64.94238;941.8996;;;;
2022/07/06 18:52:34;;;;;;;5.7;3;;;;;;;21.87;66.14063;941.8499;;;;
2022/07/06 18:54:57;;;;;;;3.3;2.5;;;;;;;21.86;66.23438;941.8477;;;;
2022/07/06 18:57:22;;;;;;;3.8;2.4;;;;;;;21.9;64.25879;941.8022;;;;
2022/07/06 18:59:51;;;;;;;4.2;2.6;;;;;;;21.8;64.62012;941.8669;;;;
2022/07/06 19:02:16;;;;;;;5.5;2.5;;;;;;;21.71;65.13477;941.8809;;;;
2022/07/06 19:04:41;;;;;;;4.4;2.7;;;;;;;21.63;67.21875;941.8823;;;;
2022/07/06 19:07:09;;;;;;;3.5;2.4;;;;;;;21.57;67.45508;941.8641;;;;
2022/07/06 19:09:33;;;;;;;3.4;2.2;;;;;;;21.27;67.51465;941.9503;;;;
2022/07/06 19:12:02;;;;;;;4.1;2.5;;;;;;;20.99;68.52441;941.9558;;;;
2022/07/06 19:14:27;;;;;;;3.6;2.7;;;;;;;20.83;69.72656;942.0286;;;;
2022/07/06 19:16:57;;;;;;;3;2.7;;;;;;;20.63;70.67676;942.0038;;;;
2022/07/06 19:19:22;;;;;;;3.1;2.5;;;;;;;20.54;71.23535;942.022;;;;
2022/07/06 19:21:52;;;;;;;2.8;2.6;;;;;;;20.45;71.5957;942.0789;;;;
2022/07/06 19:24:21;;;;;;;2.9;2.4;;;;;;;20.28;72.2334;942.1096;;;;
2022/07/06 19:26:46;;;;;;;4.7;2.4;;;;;;;20.25;70.19531;942.1248;;;;
2022/07/06 19:29:15;;;;;;;3.1;2.2;;;;;;;20.26;69.6377;942.1635;;;;
2022/07/06 19:31:40;;;;;;;2.7;2.3;;;;;;;20.23;70.4834;942.1625;;;;
2022/07/06 19:34:05;;;;;;;4.1;2.5;;;;;;;20.21;69.96875;942.3333;;;;
2022/07/06 19:36:30;;;;;;;3.9;2.3;;;;;;;19.73;71.5127;942.4449;;;;
2022/07/06 19:39:01;;;;;;;2.7;2.3;;;;;;;19.65;71.06738;942.4529;;;;
2022/07/06 19:41:27;;;;;;;3.7;2.4;;;;;;;19.5;72.04688;942.4745;;;;
2022/07/06 19:43:52;;;;;;;5.8;2.6;;;;;;;19.49;72.54688;942.4771;;;;
2022/07/06 19:46:22;;;;;;;3.4;2.6;;;;;;;19.43;72.5127;942.5129;;;;
2022/07/06 19:48:51;;;;;;;2.5;2.3;;;;;;;19.46;72.19238;942.5834;;;;
2022/07/06 19:51:16;;;;;;;3.5;3.1;;;;;;;19.3;73.61035;942.6635;;;;
2022/07/06 19:53:43;;;;;;;3.9;3;;;;;;;19.14;74.71289;942.6375;;;;
2022/07/06 19:56:08;;;;;;;3.2;2.8;;;;;;;19.12;74.15039;942.6792;;;;
2022/07/06 19:58:36;;;;;;;4.4;3;;;;;;;19.12;74.57031;942.6605;;;;
2022/07/06 20:01:01;;;;;;;3.2;2.6;;;;;;;19.17;73.97168;942.8043;;;;
2022/07/06 20:03:27;;;;;;;3.4;2.8;;;;;;;19.25;74.06836;942.8354;;;;
2022/07/06 20:05:52;;;;;;;3.2;3;;;;;;;19.4;72.96289;942.8661;;;;
2022/07/06 20:08:17;;;;;;;4.2;3.4;;;;;;;19.38;73.27441;942.8608;;;;
2022/07/06 20:10:44;;;;;;;5.9;3.8;;;;;;;19.44;73.71582;942.8762;;;;
2022/07/06 20:13:09;;;;;;;3.9;3.6;;;;;;;19.5;73.23535;942.9511;;;;
2022/07/06 20:15:44;;;;;;;3.7;3.2;;;;;;;19.48;72.45215;942.9781;;;;
2022/07/06 20:18:16;;;;;;;5.1;3.2;;;;;;;19.49;72.77832;943.0491;;;;
2022/07/06 20:20:46;;;;;;;4.8;3.2;;;;;;;19.37;73.28418;942.9894;;;;
2022/07/06 20:23:16;;;;;;;3.1;2.8;;;;;;;19.17;73.94922;943.027;;;;
2022/07/06 20:25:44;;;;;;;4.1;3.3;;;;;;;19.2;73.40723;942.9805;;;;
2022/07/06 20:28:09;;;;;;;4.3;2.9;;;;;;;19.27;73.22168;942.9692;;;;
2022/07/06 20:30:35;;;;;;;5.7;3.1;;;;;;;19.11;73.5918;943.0853;;;;
2022/07/06 20:33:01;;;;;;;3.1;2.7;;;;;;;18.81;74.30859;943.0861;;;;
2022/07/06 20:35:34;;;;;;;3.1;2.8;;;;;;;18.83;74.41602;943.1385;;;;
2022/07/06 20:38:02;;;;;;;5.2;2.7;;;;;;;18.88;73.85352;943.171;;;;
2022/07/06 20:40:34;;;;;;;4.7;2.9;;;;;;;18.72;74.68945;943.1632;;;;
2022/07/06 20:43:02;;;;;;;4.9;3.1;;;;;;;18.59;75.18945;943.2054;;;;
2022/07/06 20:45:33;;;;;;;4.3;3;;;;;;;18.59;75.01465;943.199;;;;
2022/07/06 20:48:04;;;;;;;3.1;2.8;;;;;;;18.6;74.77246;943.166;;;;
2022/07/06 20:50:36;;;;;;;5.1;3.4;;;;;;;18.58;74.80371;943.2154;;;;
2022/07/06 20:53:05;;;;;;;4.5;3;;;;;;;18.45;75.49023;943.2349;;;;
2022/07/06 20:55:30;;;;;;;5.1;2.8;;;;;;;18.32;75.71289;943.2822;;;;
2022/07/06 20:57:57;;;;;;;4.4;2.9;;;;;;;18.27;76.33203;943.2642;;;;
2022/07/06 21:00:23;;;;;;;3.9;3.1;;;;;;;18;76.9707;943.2587;;;;
2022/07/06 21:02:52;;;;;;;3.2;2.9;;;;;;;18.06;77.0166;943.2817;;;;
2022/07/06 21:05:19;;;;;;;3.4;2.9;;;;;;;18.08;76.38086;943.3322;;;;
2022/07/06 21:07:55;;;;;;;5.2;3.1;;;;;;;18.19;76.27344;943.3688;;;;
2022/07/06 21:10:30;;;;;;;5.4;3.1;;;;;;;18.05;75.94531;943.3705;;;;
2022/07/06 21:13:00;;;;;;;3.7;3;;;;;;;18;75.89063;943.3344;;;;
2022/07/06 21:15:25;;;;;;;3.8;2.9;;;;;;;17.84;76.61719;943.3386;;;;
2022/07/06 21:17:50;;;;;;;3.8;2.8;;;;;;;17.74;76.69238;943.32;;;;
2022/07/06 21:20:16;;;;;;;3.2;2.8;;;;;;;17.69;77.5791;943.3809;;;;
2022/07/06 21:22:46;;;;;;;5.4;3.2;;;;;;;17.67;78.2002;943.3542;;;;
2022/07/06 21:25:13;;;;;;;3;2.8;;;;;;;17.64;78.625;943.4044;;;;
2022/07/06 21:27:43;;;;;;;3.3;3;;;;;;;17.61;78.99121;943.3173;;;;
2022/07/06 21:30:17;;;;;;;3.5;3.2;;;;;;;17.66;78.68652;943.2891;;;;
2022/07/06 21:32:47;;;;;;;6;3.6;;;;;;;17.75;77.93652;943.2925;;;;
2022/07/06 21:35:20;;;;;;;3.1;2.8;;;;;;;17.9;76.76758;943.3484;;;;
2022/07/06 21:37:48;;;;;;;3.5;2.8;;;;;;;17.81;76.21582;943.3136;;;;
2022/07/06 21:40:15;;;;;;;3.4;3.1;;;;;;;17.7;77.09277;943.3091;;;;
2022/07/06 21:42:45;;;;;;;4.2;3.5;;;;;;;17.37;78.18066;943.329;;;;
2022/07/06 21:45:18;;;;;;;5.7;3.2;;;;;;;17.25;79.18164;943.4434;;;;
2022/07/06 21:47:45;;;;;;;5.3;3.6;;;;;;;17.36;78.99219;943.5215;;;;
2022/07/06 21:50:11;;;;;;;4.9;3.6;;;;;;;17.55;78.04004;943.4984;;;;
2022/07/06 21:52:36;;;;;;;3.9;3.2;;;;;;;17.67;77.37695;943.4807;;;;
2022/07/06 21:55:04;;;;;;;8.1;3.5;;;;;;;17.78;76.5498;943.4855;;;;
2022/07/06 21:57:30;;;;;;;5.6;3;;;;;;;17.46;77.53711;943.4009;;;;
2022/07/06 21:59:55;;;;;;;4.5;3.4;;;;;;;17.49;77.18262;943.4272;;;;
2022/07/06 22:02:23;;;;;;;4.5;3.2;;;;;;;17.64;77.33691;943.5083;;;;
2022/07/06 22:04:51;;;;;;;3.9;3.2;;;;;;;17.78;76.25781;943.4606;;;;
2022/07/06 22:07:16;;;;;;;4.7;3;;;;;;;17.89;76.10449;943.5153;;;;
2022/07/06 22:09:48;;;;;;;5.3;3.3;;;;;;;17.87;76.38965;943.4963;;;;
2022/07/06 22:12:15;;;;;;;4.3;3.5;;;;;;;18;75.81934;943.5536;;;;
2022/07/06 22:14:40;;;;;;;4.8;3.5;;;;;;;18;75.94824;943.5513;;;;
2022/07/06 22:17:10;;;;;;;3.4;3.1;;;;;;;17.98;75.75977;943.549;;;;
2022/07/06 22:19:35;;;;;;;5.9;3.5;;;;;;;17.93;75.41504;943.56;;;;
2022/07/06 22:22:03;;;;;;;5.1;3.5;;;;;;;17.57;76.53711;943.6093;;;;
2022/07/06 22:24:33;;;;;;;4.5;3.8;;;;;;;17.66;76.52734;943.5919;;;;
2022/07/06 22:26:58;;;;;;;4;3.5;;;;;;;17.61;76.9707;943.5583;;;;
2022/07/06 22:29:26;;;;;;;4.3;3.6;;;;;;;17.55;77.19141;943.5378;;;;
2022/07/06 22:31:51;;;;;;;4.5;3.6;;;;;;;17.56;77.60156;943.5748;;;;
2022/07/06 22:34:18;;;;;;;4.2;3.5;;;;;;;17.54;77.19141;943.5339;;;;
2022/07/06 22:36:43;;;;;;;4;3.2;;;;;;;17.27;77.94434;943.4949;;;;
2022/07/06 22:39:12;;;;;;;4.2;3.2;;;;;;;17.28;78.17773;943.5293;;;;
2022/07/06 22:41:37;;;;;;;4.9;3.5;;;;;;;17.36;77.62402;943.4981;;;;
2022/07/06 22:44:03;;;;;;;3.4;3.1;;;;;;;17.39;77.39648;943.4189;;;;
2022/07/06 22:46:28;;;;;;;4.1;3.7;;;;;;;17.36;77.74023;943.4232;;;;
2022/07/06 22:48:55;;;;;;;4.1;3.5;;;;;;;17.24;78.54297;943.4515;;;;
2022/07/06 22:51:20;;;;;;;6.3;4.2;;;;;;;17.39;78.09277;943.4842;;;;
2022/07/06 22:53:46;;;;;;;6.5;3.6;;;;;;;17.46;77.1084;943.454;;;;
2022/07/06 22:56:11;;;;;;;5.3;3.9;;;;;;;17.4;77.63086;943.4149;;;;
2022/07/06 22:58:40;;;;;;;5.1;3.4;;;;;;;17.32;78.08008;943.4333;;;;
2022/07/06 23:01:20;;;;;;;4.9;3.7;;;;;;;17.27;77.9209;943.4618;;;;
2022/07/06 23:03:49;;;;;;;4.2;3.4;;;;;;;17.12;78.68262;943.4144;;;;
2022/07/06 23:06:14;;;;;;;3.6;3.1;;;;;;;16.97;79.30371;943.4611;;;;
2022/07/06 23:08:58;;;;;;;4.6;3.2;;;;;;;16.86;79.61035;943.4955;;;;
2022/07/06 23:11:30;;;;;;;3.9;3.6;;;;;;;16.88;79.57715;943.509;;;;
2022/07/06 23:14:04;;;;;;;4;3.6;;;;;;;16.83;79.6377;943.5745;;;;
2022/07/06 23:16:36;;;;;;;4.8;3.6;;;;;;;16.82;79.13965;943.5609;;;;
2022/07/06 23:19:03;;;;;;;4.7;3.4;;;;;;;16.71;79.68652;943.5613;;;;
2022/07/06 23:21:34;;;;;;;4.1;3.7;;;;;;;16.78;79.57227;943.6099;;;;
2022/07/06 23:24:00;;;;;;;5.4;3.8;;;;;;;16.83;79.83691;943.7177;;;;
2022/07/06 23:26:31;;;;;;;4.9;4;;;;;;;16.96;79.68457;943.6831;;;;
2022/07/06 23:28:58;;;;;;;4.9;3.8;;;;;;;17.01;79.54395;943.67;;;;
2022/07/06 23:31:37;;;;;;;4.9;3.7;;;;;;;17.05;79.3418;943.6129;;;;
2022/07/06 23:34:10;;;;;;;4.9;3.4;;;;;;;17;78.84668;943.633;;;;
2022/07/06 23:36:51;;;;;;;4;3.6;;;;;;;16.9;79.09473;943.5967;;;;
2022/07/06 23:39:24;;;;;;;5.8;3.7;;;;;;;16.86;79.71289;943.592;;;;
2022/07/06 23:42:01;;;;;;;4.3;3.9;;;;;;;16.9;80.1377;943.5186;;;;
2022/07/06 23:44:31;;;;;;;3.9;3.5;;;;;;;16.93;80.06152;943.4822;;;;
2022/07/06 23:46:59;;;;;;;5.4;3.8;;;;;;;17.02;79.52148;943.4891;;;;
2022/07/06 23:49:39;;;;;;;5.3;4.1;;;;;;;16.99;79.94531;943.4762;;;;
2022/07/06 23:52:07;;;;;;;4;3.6;;;;;;;16.87;79.47266;943.3748;;;;
2022/07/06 23:54:40;;;;;;;4.2;3.5;;;;;;;16.73;79.71484;943.4067;;;;
2022/07/06 23:57:07;;;;;;;5.6;4.2;;;;;;;16.41;81.17188;943.3738;;;;
2022/07/06 23:59:46;;;;;;;5.5;3.7;;;;;;;16.44;81.53516;943.3997;;;;
